sensor_id;sensor_type;location;lat;lon;timestamp;pressure;altitude;pressure_sealevel;temperature;humidity
69219;BME280;56232;53.384;-2.732;2022-08-19T00:01:45;100681.39;;;17.37;32.30
69219;BME280;56232;53.384;-2.732;2022-08-19T00:04:11;100675.44;;;17.79;32.37
69219;BME280;56232;53.384;-2.732;2022-08-19T00:06:35;100678.50;;;17.41;32.41
69219;BME280;56232;53.384;-2.732;2022-08-19T00:09:00;100681.85;;;17.73;32.57
69219;BME280;56232;53.384;-2.732;2022-08-19T00:11:26;100678.15;;;17.15;32.67
69219;BME280;56232;53.384;-2.732;2022-08-19T00:13:51;100675.94;;;17.75;32.51
69219;BME280;56232;53.384;-2.732;2022-08-19T00:16:17;100677.04;;;17.76;32.50
69219;BME280;56232;53.384;-2.732;2022-08-19T00:18:42;100677.21;;;17.69;32.49
69219;BME280;56232;53.384;-2.732;2022-08-19T00:21:08;100676.91;;;17.70;32.40
69219;BME280;56232;53.384;-2.732;2022-08-19T00:23:33;100679.64;;;17.57;32.28
69219;BME280;56232;53.384;-2.732;2022-08-19T00:25:59;100678.07;;;17.02;32.32
69219;BME280;56232;53.384;-2.732;2022-08-19T00:28:24;100677.62;;;17.49;32.17
69219;BME280;56232;53.384;-2.732;2022-08-19T00:30:50;100674.16;;;17.37;32.24
69219;BME280;56232;53.384;-2.732;2022-08-19T00:33:15;100674.79;;;17.36;32.26
69219;BME280;56232;53.384;-2.732;2022-08-19T00:35:41;100679.27;;;17.41;32.22
69219;BME280;56232;53.384;-2.732;2022-08-19T00:38:06;100685.00;;;16.38;32.11
69219;BME280;56232;53.384;-2.732;2022-08-19T00:40:32;100690.70;;;16.96;32.08
69219;BME280;56232;53.384;-2.732;2022-08-19T00:42:57;100688.10;;;17.36;32.06
69219;BME280;56232;53.384;-2.732;2022-08-19T00:45:26;100688.59;;;17.21;32.11
69219;BME280;56232;53.384;-2.732;2022-08-19T00:47:48;100688.88;;;17.02;32.03
69219;BME280;56232;53.384;-2.732;2022-08-19T00:50:17;100687.80;;;16.71;32.11
69219;BME280;56232;53.384;-2.732;2022-08-19T00:52:42;100685.53;;;16.56;32.23
69219;BME280;56232;53.384;-2.732;2022-08-19T00:55:08;100682.48;;;17.51;32.27
69219;BME280;56232;53.384;-2.732;2022-08-19T00:57:35;100687.06;;;17.30;32.37
69219;BME280;56232;53.384;-2.732;2022-08-19T00:59:58;100689.60;;;16.16;32.40
69219;BME280;56232;53.384;-2.732;2022-08-19T01:02:22;100690.11;;;17.31;32.40
69219;BME280;56232;53.384;-2.732;2022-08-19T01:04:47;100690.03;;;17.34;32.34
69219;BME280;56232;53.384;-2.732;2022-08-19T01:07:14;100689.89;;;16.90;32.31
69219;BME280;56232;53.384;-2.732;2022-08-19T01:09:39;100686.90;;;17.56;32.16
69219;BME280;56232;53.384;-2.732;2022-08-19T01:12:05;100686.69;;;17.21;32.11
69219;BME280;56232;53.384;-2.732;2022-08-19T01:14:30;100688.61;;;16.66;31.97
69219;BME280;56232;53.384;-2.732;2022-08-19T01:16:56;100688.73;;;16.68;32.01
69219;BME280;56232;53.384;-2.732;2022-08-19T01:19:26;100685.75;;;17.40;31.90
69219;BME280;56232;53.384;-2.732;2022-08-19T01:21:51;100680.54;;;16.61;31.95
69219;BME280;56232;53.384;-2.732;2022-08-19T01:24:13;100683.68;;;16.53;32.04
69219;BME280;56232;53.384;-2.732;2022-08-19T01:26:41;100685.77;;;16.44;31.98
69219;BME280;56232;53.384;-2.732;2022-08-19T01:29:03;100690.44;;;17.45;32.09
69219;BME280;56232;53.384;-2.732;2022-08-19T01:31:29;100689.09;;;17.17;32.12
69219;BME280;56232;53.384;-2.732;2022-08-19T01:33:57;100696.23;;;15.30;32.22
69219;BME280;56232;53.384;-2.732;2022-08-19T01:36:24;100699.05;;;16.71;32.32
69219;BME280;56232;53.384;-2.732;2022-08-19T01:38:45;100693.46;;;15.47;32.52
69219;BME280;56232;53.384;-2.732;2022-08-19T01:41:12;100692.92;;;15.91;32.41
69219;BME280;56232;53.384;-2.732;2022-08-19T01:43:37;100699.20;;;16.24;32.53
69219;BME280;56232;53.384;-2.732;2022-08-19T01:46:03;100696.54;;;16.17;32.55
69219;BME280;56232;53.384;-2.732;2022-08-19T01:48:32;100698.76;;;15.97;32.79
69219;BME280;56232;53.384;-2.732;2022-08-19T01:50:53;100698.92;;;15.73;32.86
69219;BME280;56232;53.384;-2.732;2022-08-19T01:53:19;100700.52;;;16.02;33.06
69219;BME280;56232;53.384;-2.732;2022-08-19T01:55:45;100698.41;;;15.43;33.03
69219;BME280;56232;53.384;-2.732;2022-08-19T01:58:13;100699.18;;;14.76;32.89
69219;BME280;56232;53.384;-2.732;2022-08-19T02:00:36;100698.41;;;15.62;33.10
69219;BME280;56232;53.384;-2.732;2022-08-19T02:03:02;100703.87;;;14.89;33.26
69219;BME280;56232;53.384;-2.732;2022-08-19T02:05:28;100702.46;;;15.24;33.41
69219;BME280;56232;53.384;-2.732;2022-08-19T02:07:53;100706.40;;;15.76;33.58
69219;BME280;56232;53.384;-2.732;2022-08-19T02:10:20;100707.95;;;15.12;33.19
69219;BME280;56232;53.384;-2.732;2022-08-19T02:12:44;100706.27;;;15.11;33.29
69219;BME280;56232;53.384;-2.732;2022-08-19T02:15:10;100708.39;;;14.97;33.64
69219;BME280;56232;53.384;-2.732;2022-08-19T02:17:36;100706.35;;;15.46;33.83
69219;BME280;56232;53.384;-2.732;2022-08-19T02:20:01;100708.04;;;14.73;33.74
69219;BME280;56232;53.384;-2.732;2022-08-19T02:22:26;100712.30;;;14.09;33.69
69219;BME280;56232;53.384;-2.732;2022-08-19T02:24:52;100719.85;;;14.50;33.98
69219;BME280;56232;53.384;-2.732;2022-08-19T02:27:18;100722.48;;;15.04;33.83
69219;BME280;56232;53.384;-2.732;2022-08-19T02:29:44;100724.38;;;14.40;33.70
69219;BME280;56232;53.384;-2.732;2022-08-19T02:32:08;100733.50;;;14.40;33.64
69219;BME280;56232;53.384;-2.732;2022-08-19T02:34:34;100737.70;;;15.05;33.53
69219;BME280;56232;53.384;-2.732;2022-08-19T02:37:00;100741.92;;;15.08;33.46
69219;BME280;56232;53.384;-2.732;2022-08-19T02:39:25;100743.80;;;14.50;33.28
69219;BME280;56232;53.384;-2.732;2022-08-19T02:41:51;100745.81;;;15.02;33.28
69219;BME280;56232;53.384;-2.732;2022-08-19T02:44:17;100749.14;;;14.86;33.33
69219;BME280;56232;53.384;-2.732;2022-08-19T02:46:44;100753.23;;;14.21;33.19
69219;BME280;56232;53.384;-2.732;2022-08-19T02:49:08;100747.35;;;14.70;33.35
69219;BME280;56232;53.384;-2.732;2022-08-19T02:51:37;100744.65;;;14.01;33.23
69219;BME280;56232;53.384;-2.732;2022-08-19T02:53:59;100744.28;;;14.56;33.26
69219;BME280;56232;53.384;-2.732;2022-08-19T02:56:26;100743.83;;;14.54;33.20
69219;BME280;56232;53.384;-2.732;2022-08-19T02:58:51;100749.16;;;14.91;33.13
69219;BME280;56232;53.384;-2.732;2022-08-19T03:01:22;100747.74;;;14.25;33.17
69219;BME280;56232;53.384;-2.732;2022-08-19T03:03:42;100751.39;;;14.60;33.19
69219;BME280;56232;53.384;-2.732;2022-08-19T03:06:12;100755.06;;;14.01;33.39
69219;BME280;56232;53.384;-2.732;2022-08-19T03:08:33;100754.41;;;13.35;33.48
69219;BME280;56232;53.384;-2.732;2022-08-19T03:10:59;100756.08;;;13.92;33.44
69219;BME280;56232;53.384;-2.732;2022-08-19T03:13:25;100760.33;;;14.34;33.35
69219;BME280;56232;53.384;-2.732;2022-08-19T03:15:50;100764.23;;;14.28;33.30
69219;BME280;56232;53.384;-2.732;2022-08-19T03:18:16;100769.18;;;14.24;33.15
69219;BME280;56232;53.384;-2.732;2022-08-19T03:20:42;100764.22;;;14.73;33.15
69219;BME280;56232;53.384;-2.732;2022-08-19T03:23:07;100761.07;;;14.65;33.13
69219;BME280;56232;53.384;-2.732;2022-08-19T03:25:37;100760.48;;;14.53;33.13
69219;BME280;56232;53.384;-2.732;2022-08-19T03:27:58;100764.63;;;13.35;33.21
69219;BME280;56232;53.384;-2.732;2022-08-19T03:30:24;100763.58;;;13.81;33.19
69219;BME280;56232;53.384;-2.732;2022-08-19T03:32:50;100761.61;;;13.21;33.19
69219;BME280;56232;53.384;-2.732;2022-08-19T03:35:16;100763.93;;;13.11;33.18
69219;BME280;56232;53.384;-2.732;2022-08-19T03:37:41;100762.78;;;13.03;33.14
69219;BME280;56232;53.384;-2.732;2022-08-19T03:40:07;100760.63;;;14.02;33.19
69219;BME280;56232;53.384;-2.732;2022-08-19T03:42:32;100761.01;;;14.00;33.13
69219;BME280;56232;53.384;-2.732;2022-08-19T03:44:58;100763.37;;;13.35;33.07
69219;BME280;56232;53.384;-2.732;2022-08-19T03:47:23;100761.32;;;13.15;33.14
69219;BME280;56232;53.384;-2.732;2022-08-19T03:49:49;100766.40;;;13.60;33.13
69219;BME280;56232;53.384;-2.732;2022-08-19T03:52:15;100769.54;;;13.55;33.16
69219;BME280;56232;53.384;-2.732;2022-08-19T03:54:40;100772.75;;;13.50;33.12
69219;BME280;56232;53.384;-2.732;2022-08-19T03:57:06;100773.07;;;12.78;33.11
69219;BME280;56232;53.384;-2.732;2022-08-19T03:59:33;100773.26;;;13.27;33.26
69219;BME280;56232;53.384;-2.732;2022-08-19T04:01:59;100771.39;;;13.24;33.46
69219;BME280;56232;53.384;-2.732;2022-08-19T04:04:23;100773.72;;;13.15;33.51
69219;BME280;56232;53.384;-2.732;2022-08-19T04:06:48;100779.25;;;13.19;33.48
69219;BME280;56232;53.384;-2.732;2022-08-19T04:09:15;100781.98;;;14.14;33.33
69219;BME280;56232;53.384;-2.732;2022-08-19T04:11:41;100785.67;;;13.51;33.41
69219;BME280;56232;53.384;-2.732;2022-08-19T04:14:05;100787.52;;;13.43;33.40
69219;BME280;56232;53.384;-2.732;2022-08-19T04:16:31;100789.88;;;12.83;33.40
69219;BME280;56232;53.384;-2.732;2022-08-19T04:19:00;100789.13;;;13.88;33.33
69219;BME280;56232;53.384;-2.732;2022-08-19T04:21:24;100787.56;;;13.30;33.35
69219;BME280;56232;53.384;-2.732;2022-08-19T04:23:48;100790.04;;;13.71;33.31
69219;BME280;56232;53.384;-2.732;2022-08-19T04:26:15;100792.71;;;13.09;33.34
69219;BME280;56232;53.384;-2.732;2022-08-19T04:28:39;100794.42;;;13.02;33.47
69219;BME280;56232;53.384;-2.732;2022-08-19T04:31:05;100797.29;;;12.50;33.41
69219;BME280;56232;53.384;-2.732;2022-08-19T04:33:31;100803.20;;;12.41;33.68
69219;BME280;56232;53.384;-2.732;2022-08-19T04:35:56;100804.48;;;12.47;33.69
69219;BME280;56232;53.384;-2.732;2022-08-19T04:38:22;100803.51;;;12.95;33.81
69219;BME280;56232;53.384;-2.732;2022-08-19T04:40:50;100805.81;;;13.36;33.83
69219;BME280;56232;53.384;-2.732;2022-08-19T04:43:14;100805.00;;;13.30;34.10
69219;BME280;56232;53.384;-2.732;2022-08-19T04:45:39;100808.31;;;13.38;34.01
69219;BME280;56232;53.384;-2.732;2022-08-19T04:48:04;100811.55;;;12.87;33.79
69219;BME280;56232;53.384;-2.732;2022-08-19T04:50:29;100812.77;;;13.34;33.79
69219;BME280;56232;53.384;-2.732;2022-08-19T04:52:55;100812.89;;;12.83;33.55
69219;BME280;56232;53.384;-2.732;2022-08-19T04:55:21;100815.92;;;12.83;33.65
69219;BME280;56232;53.384;-2.732;2022-08-19T04:57:46;100823.20;;;12.69;33.75
69219;BME280;56232;53.384;-2.732;2022-08-19T05:00:17;100833.54;;;12.61;33.92
69219;BME280;56232;53.384;-2.732;2022-08-19T05:02:38;100835.84;;;13.14;33.74
69219;BME280;56232;53.384;-2.732;2022-08-19T05:05:04;100837.31;;;13.16;33.79
69219;BME280;56232;53.384;-2.732;2022-08-19T05:07:29;100839.68;;;12.19;33.94
69219;BME280;56232;53.384;-2.732;2022-08-19T05:09:54;100839.77;;;12.66;34.04
69219;BME280;56232;53.384;-2.732;2022-08-19T05:12:20;100840.37;;;13.21;33.91
69219;BME280;56232;53.384;-2.732;2022-08-19T05:14:46;100843.50;;;13.25;33.78
69219;BME280;56232;53.384;-2.732;2022-08-19T05:17:12;100841.49;;;13.28;33.57
69219;BME280;56232;53.384;-2.732;2022-08-19T05:19:36;100843.95;;;12.36;33.78
69219;BME280;56232;53.384;-2.732;2022-08-19T05:22:02;100846.61;;;13.43;33.88
69219;BME280;56232;53.384;-2.732;2022-08-19T05:24:28;100849.22;;;12.52;33.64
69219;BME280;56232;53.384;-2.732;2022-08-19T05:26:55;100851.57;;;12.59;33.50
69219;BME280;56232;53.384;-2.732;2022-08-19T05:29:21;100850.94;;;13.67;33.44
69219;BME280;56232;53.384;-2.732;2022-08-19T05:31:46;100847.93;;;13.31;33.42
69219;BME280;56232;53.384;-2.732;2022-08-19T05:34:10;100848.55;;;13.89;33.24
69219;BME280;56232;53.384;-2.732;2022-08-19T05:36:37;100849.81;;;12.93;33.65
69219;BME280;56232;53.384;-2.732;2022-08-19T05:39:00;100852.00;;;13.03;33.32
69219;BME280;56232;53.384;-2.732;2022-08-19T05:41:26;100859.09;;;13.60;32.92
69219;BME280;56232;53.384;-2.732;2022-08-19T05:43:51;100864.27;;;13.23;33.12
69219;BME280;56232;53.384;-2.732;2022-08-19T05:46:19;100867.89;;;13.38;32.98
69219;BME280;56232;53.384;-2.732;2022-08-19T05:48:43;100870.84;;;12.94;32.99
69219;BME280;56232;53.384;-2.732;2022-08-19T05:51:08;100867.98;;;14.22;33.43
69219;BME280;56232;53.384;-2.732;2022-08-19T05:53:35;100866.03;;;13.89;33.11
69219;BME280;56232;53.384;-2.732;2022-08-19T05:56:03;100861.49;;;12.99;33.09
69219;BME280;56232;53.384;-2.732;2022-08-19T05:58:26;100865.59;;;14.30;32.77
69219;BME280;56232;53.384;-2.732;2022-08-19T06:00:51;100869.87;;;14.46;33.11
69219;BME280;56232;53.384;-2.732;2022-08-19T06:03:16;100874.19;;;14.68;33.49
69219;BME280;56232;53.384;-2.732;2022-08-19T06:05:42;100878.00;;;13.74;33.40
69219;BME280;56232;53.384;-2.732;2022-08-19T06:08:08;100877.46;;;13.95;33.11
69219;BME280;56232;53.384;-2.732;2022-08-19T06:10:33;100875.41;;;14.56;32.89
69219;BME280;56232;53.384;-2.732;2022-08-19T06:12:59;100874.06;;;14.76;32.50
69219;BME280;56232;53.384;-2.732;2022-08-19T06:15:24;100876.28;;;14.49;33.03
69219;BME280;56232;53.384;-2.732;2022-08-19T06:17:49;100879.09;;;14.67;32.19
69219;BME280;56232;53.384;-2.732;2022-08-19T06:20:15;100879.39;;;14.87;31.88
69219;BME280;56232;53.384;-2.732;2022-08-19T06:22:43;100883.76;;;15.04;31.82
69219;BME280;56232;53.384;-2.732;2022-08-19T06:25:07;100887.05;;;15.31;32.04
69219;BME280;56232;53.384;-2.732;2022-08-19T06:27:32;100885.44;;;14.96;31.64
69219;BME280;56232;53.384;-2.732;2022-08-19T06:29:57;100886.28;;;16.03;31.39
69219;BME280;56232;53.384;-2.732;2022-08-19T06:32:23;100882.42;;;16.07;31.93
69219;BME280;56232;53.384;-2.732;2022-08-19T06:34:49;100886.58;;;16.77;31.25
69219;BME280;56232;53.384;-2.732;2022-08-19T06:37:15;100886.25;;;18.04;29.45
69219;BME280;56232;53.384;-2.732;2022-08-19T06:39:42;100890.46;;;21.38;27.17
69219;BME280;56232;53.384;-2.732;2022-08-19T06:42:06;100890.80;;;23.37;24.94
69219;BME280;56232;53.384;-2.732;2022-08-19T06:44:32;100890.91;;;24.50;22.28
69219;BME280;56232;53.384;-2.732;2022-08-19T06:46:56;100895.35;;;27.26;21.68
69219;BME280;56232;53.384;-2.732;2022-08-19T06:49:23;100892.68;;;27.61;20.50
69219;BME280;56232;53.384;-2.732;2022-08-19T06:51:48;100893.02;;;28.57;19.25
69219;BME280;56232;53.384;-2.732;2022-08-19T06:54:14;100895.18;;;30.31;18.66
69219;BME280;56232;53.384;-2.732;2022-08-19T06:56:38;100905.09;;;30.89;17.61
69219;BME280;56232;53.384;-2.732;2022-08-19T06:59:06;100903.31;;;30.92;16.72
69219;BME280;56232;53.384;-2.732;2022-08-19T07:01:30;100905.57;;;31.69;16.52
69219;BME280;56232;53.384;-2.732;2022-08-19T07:03:55;100907.68;;;32.40;15.71
69219;BME280;56232;53.384;-2.732;2022-08-19T07:06:21;100909.62;;;32.59;15.21
69219;BME280;56232;53.384;-2.732;2022-08-19T07:08:47;100911.43;;;32.96;15.05
69219;BME280;56232;53.384;-2.732;2022-08-19T07:11:15;100915.79;;;33.99;14.51
69219;BME280;56232;53.384;-2.732;2022-08-19T07:13:38;100914.58;;;34.64;13.86
69219;BME280;56232;53.384;-2.732;2022-08-19T07:16:04;100914.82;;;34.36;13.65
69219;BME280;56232;53.384;-2.732;2022-08-19T07:18:28;100916.57;;;34.93;13.71
69219;BME280;56232;53.384;-2.732;2022-08-19T07:21:02;100918.55;;;34.65;13.41
69219;BME280;56232;53.384;-2.732;2022-08-19T07:23:19;100917.34;;;35.94;13.08
69219;BME280;56232;53.384;-2.732;2022-08-19T07:25:45;100921.39;;;36.23;13.09
69219;BME280;56232;53.384;-2.732;2022-08-19T07:28:10;100923.37;;;35.65;12.52
69219;BME280;56232;53.384;-2.732;2022-08-19T07:30:37;100930.20;;;36.03;12.81
69219;BME280;56232;53.384;-2.732;2022-08-19T07:33:01;100931.16;;;33.99;12.93
69219;BME280;56232;53.384;-2.732;2022-08-19T07:35:27;100936.56;;;34.49;12.88
69219;BME280;56232;53.384;-2.732;2022-08-19T07:37:52;100934.55;;;35.17;12.27
69219;BME280;56232;53.384;-2.732;2022-08-19T07:40:18;100935.73;;;35.42;12.48
69219;BME280;56232;53.384;-2.732;2022-08-19T07:42:43;100930.30;;;36.93;12.50
69219;BME280;56232;53.384;-2.732;2022-08-19T07:45:10;100934.39;;;34.43;12.76
69219;BME280;56232;53.384;-2.732;2022-08-19T07:47:34;100931.51;;;33.36;13.03
69219;BME280;56232;53.384;-2.732;2022-08-19T07:50:00;100926.63;;;33.74;13.37
69219;BME280;56232;53.384;-2.732;2022-08-19T07:52:25;100929.52;;;34.07;12.94
69219;BME280;56232;53.384;-2.732;2022-08-19T07:54:51;100929.26;;;35.27;12.70
69219;BME280;56232;53.384;-2.732;2022-08-19T07:57:17;100929.83;;;36.30;12.31
69219;BME280;56232;53.384;-2.732;2022-08-19T07:59:42;100931.70;;;35.94;11.89
69219;BME280;56232;53.384;-2.732;2022-08-19T08:02:08;100933.24;;;36.19;11.71
69219;BME280;56232;53.384;-2.732;2022-08-19T08:04:33;100930.94;;;36.50;11.72
69219;BME280;56232;53.384;-2.732;2022-08-19T08:06:58;100934.97;;;36.23;11.50
69219;BME280;56232;53.384;-2.732;2022-08-19T08:09:27;100938.70;;;36.95;11.58
69219;BME280;56232;53.384;-2.732;2022-08-19T08:11:52;100939.51;;;36.23;11.62
69219;BME280;56232;53.384;-2.732;2022-08-19T08:14:16;100942.18;;;37.41;11.81
69219;BME280;56232;53.384;-2.732;2022-08-19T08:16:41;100943.79;;;37.42;11.71
69219;BME280;56232;53.384;-2.732;2022-08-19T08:19:06;100945.53;;;38.05;11.58
69219;BME280;56232;53.384;-2.732;2022-08-19T08:21:32;100946.51;;;38.64;11.37
69219;BME280;56232;53.384;-2.732;2022-08-19T08:23:57;100948.36;;;38.40;10.97
69219;BME280;56232;53.384;-2.732;2022-08-19T08:26:23;100953.25;;;38.45;11.21
69219;BME280;56232;53.384;-2.732;2022-08-19T08:28:48;100954.73;;;38.43;11.08
69219;BME280;56232;53.384;-2.732;2022-08-19T08:31:14;100955.91;;;38.22;11.25
69219;BME280;56232;53.384;-2.732;2022-08-19T08:33:39;100958.52;;;38.00;11.18
69219;BME280;56232;53.384;-2.732;2022-08-19T08:36:05;100956.80;;;38.89;11.25
69219;BME280;56232;53.384;-2.732;2022-08-19T08:38:31;100958.16;;;38.83;11.15
69219;BME280;56232;53.384;-2.732;2022-08-19T08:40:59;100958.78;;;38.53;11.05
69219;BME280;56232;53.384;-2.732;2022-08-19T08:43:27;100956.72;;;38.22;11.00
69219;BME280;56232;53.384;-2.732;2022-08-19T08:45:51;100952.63;;;38.90;11.23
69219;BME280;56232;53.384;-2.732;2022-08-19T08:48:18;100954.27;;;38.66;11.26
69219;BME280;56232;53.384;-2.732;2022-08-19T08:50:41;100950.92;;;37.82;11.46
69219;BME280;56232;53.384;-2.732;2022-08-19T08:53:05;100949.92;;;37.60;11.79
69219;BME280;56232;53.384;-2.732;2022-08-19T08:55:29;100951.27;;;37.74;11.86
69219;BME280;56232;53.384;-2.732;2022-08-19T08:57:58;100947.02;;;38.34;11.73
69219;BME280;56232;53.384;-2.732;2022-08-19T09:00:23;100943.81;;;38.63;11.71
69219;BME280;56232;53.384;-2.732;2022-08-19T09:02:45;100940.22;;;37.49;11.94
69219;BME280;56232;53.384;-2.732;2022-08-19T09:05:12;100945.86;;;36.85;12.50
69219;BME280;56232;53.384;-2.732;2022-08-19T09:07:42;100945.51;;;36.90;12.44
69219;BME280;56232;53.384;-2.732;2022-08-19T09:10:08;100957.39;;;35.11;13.49
69219;BME280;56232;53.384;-2.732;2022-08-19T09:12:34;100952.11;;;33.49;14.55
69219;BME280;56232;53.384;-2.732;2022-08-19T09:14:57;100951.29;;;33.03;15.19
69219;BME280;56232;53.384;-2.732;2022-08-19T09:17:20;100948.40;;;32.50;15.25
69219;BME280;56232;53.384;-2.732;2022-08-19T09:19:50;100949.49;;;32.06;15.41
69219;BME280;56232;53.384;-2.732;2022-08-19T09:22:09;100948.23;;;32.77;15.47
69219;BME280;56232;53.384;-2.732;2022-08-19T09:24:34;100953.20;;;32.42;15.41
69219;BME280;56232;53.384;-2.732;2022-08-19T09:27:00;100954.01;;;31.84;16.39
69219;BME280;56232;53.384;-2.732;2022-08-19T09:29:25;100956.56;;;29.86;17.38
69219;BME280;56232;53.384;-2.732;2022-08-19T09:31:51;100959.64;;;29.13;18.31
69219;BME280;56232;53.384;-2.732;2022-08-19T09:34:16;100959.67;;;29.32;18.38
69219;BME280;56232;53.384;-2.732;2022-08-19T09:36:42;100962.87;;;29.67;18.50
69219;BME280;56232;53.384;-2.732;2022-08-19T09:39:07;100961.86;;;29.84;18.34
69219;BME280;56232;53.384;-2.732;2022-08-19T09:41:33;100958.23;;;30.13;17.79
69219;BME280;56232;53.384;-2.732;2022-08-19T09:43:59;100955.84;;;29.92;18.09
69219;BME280;56232;53.384;-2.732;2022-08-19T09:46:26;100961.07;;;29.49;18.62
69219;BME280;56232;53.384;-2.732;2022-08-19T09:48:50;100961.12;;;30.02;18.32
69219;BME280;56232;53.384;-2.732;2022-08-19T09:51:17;100958.46;;;30.69;17.67
69219;BME280;56232;53.384;-2.732;2022-08-19T09:53:41;100951.16;;;31.73;16.94
69219;BME280;56232;53.384;-2.732;2022-08-19T09:56:06;100950.79;;;31.93;16.76
69219;BME280;56232;53.384;-2.732;2022-08-19T09:58:31;100951.51;;;32.75;16.58
69219;BME280;56232;53.384;-2.732;2022-08-19T10:00:58;100951.26;;;32.01;16.59
69219;BME280;56232;53.384;-2.732;2022-08-19T10:03:23;100948.20;;;32.34;16.34
69219;BME280;56232;53.384;-2.732;2022-08-19T10:05:48;100948.52;;;32.95;16.48
69219;BME280;56232;53.384;-2.732;2022-08-19T10:08:15;100947.31;;;32.26;17.56
69219;BME280;56232;53.384;-2.732;2022-08-19T10:10:44;100944.17;;;32.55;16.82
69219;BME280;56232;53.384;-2.732;2022-08-19T10:13:04;100942.33;;;32.72;16.20
69219;BME280;56232;53.384;-2.732;2022-08-19T10:15:30;100940.63;;;33.07;16.35
69219;BME280;56232;53.384;-2.732;2022-08-19T10:17:55;100940.16;;;32.74;17.05
69219;BME280;56232;53.384;-2.732;2022-08-19T10:20:21;100933.86;;;32.37;17.08
69219;BME280;56232;53.384;-2.732;2022-08-19T10:22:46;100930.79;;;33.30;15.93
69219;BME280;56232;53.384;-2.732;2022-08-19T10:25:13;100934.34;;;33.07;16.18
69219;BME280;56232;53.384;-2.732;2022-08-19T10:27:37;100935.89;;;31.83;17.39
69219;BME280;56232;53.384;-2.732;2022-08-19T10:30:04;100931.11;;;31.62;18.00
69219;BME280;56232;53.384;-2.732;2022-08-19T10:32:28;100938.47;;;30.34;18.84
69219;BME280;56232;53.384;-2.732;2022-08-19T10:34:54;100939.29;;;29.32;18.98
69219;BME280;56232;53.384;-2.732;2022-08-19T10:37:19;100947.69;;;29.07;19.41
69219;BME280;56232;53.384;-2.732;2022-08-19T10:39:46;100943.32;;;29.75;20.16
69219;BME280;56232;53.384;-2.732;2022-08-19T10:42:10;100939.66;;;28.21;20.94
69219;BME280;56232;53.384;-2.732;2022-08-19T10:44:36;100942.94;;;27.91;21.36
69219;BME280;56232;53.384;-2.732;2022-08-19T10:47:01;100944.25;;;27.58;21.69
69219;BME280;56232;53.384;-2.732;2022-08-19T10:49:27;100943.62;;;27.50;22.07
69219;BME280;56232;53.384;-2.732;2022-08-19T10:51:52;100938.05;;;27.13;21.23
69219;BME280;56232;53.384;-2.732;2022-08-19T10:54:18;100942.12;;;27.37;21.69
69219;BME280;56232;53.384;-2.732;2022-08-19T10:56:43;100937.81;;;26.98;22.50
69219;BME280;56232;53.384;-2.732;2022-08-19T10:59:10;100943.03;;;27.27;22.60
69219;BME280;56232;53.384;-2.732;2022-08-19T11:01:35;100933.85;;;26.92;22.25
69219;BME280;56232;53.384;-2.732;2022-08-19T11:04:01;100932.70;;;27.03;22.30
69219;BME280;56232;53.384;-2.732;2022-08-19T11:06:26;100939.14;;;27.34;22.60
69219;BME280;56232;53.384;-2.732;2022-08-19T11:08:53;100934.12;;;27.45;21.87
69219;BME280;56232;53.384;-2.732;2022-08-19T11:11:17;100941.68;;;27.32;22.37
69219;BME280;56232;53.384;-2.732;2022-08-19T11:13:43;100933.57;;;27.37;22.47
69219;BME280;56232;53.384;-2.732;2022-08-19T11:16:11;100931.82;;;26.53;22.77
69219;BME280;56232;53.384;-2.732;2022-08-19T11:18:35;100931.29;;;27.70;22.52
69219;BME280;56232;53.384;-2.732;2022-08-19T11:21:05;100938.33;;;27.31;22.37
69219;BME280;56232;53.384;-2.732;2022-08-19T11:23:24;100938.80;;;27.27;22.84
69219;BME280;56232;53.384;-2.732;2022-08-19T11:25:50;100941.14;;;26.22;23.10
69219;BME280;56232;53.384;-2.732;2022-08-19T11:28:15;100944.05;;;26.46;22.67
69219;BME280;56232;53.384;-2.732;2022-08-19T11:30:41;100945.64;;;26.43;22.95
69219;BME280;56232;53.384;-2.732;2022-08-19T11:33:06;100942.32;;;26.61;23.20
69219;BME280;56232;53.384;-2.732;2022-08-19T11:35:32;100943.52;;;25.68;22.86
69219;BME280;56232;53.384;-2.732;2022-08-19T11:37:57;100950.21;;;26.02;23.53
69219;BME280;56232;53.384;-2.732;2022-08-19T11:40:23;100948.08;;;26.12;23.41
69219;BME280;56232;53.384;-2.732;2022-08-19T11:42:49;100947.94;;;26.03;23.66
69219;BME280;56232;53.384;-2.732;2022-08-19T11:45:15;100942.27;;;26.26;23.57
69219;BME280;56232;53.384;-2.732;2022-08-19T11:47:40;100947.54;;;25.02;23.63
69219;BME280;56232;53.384;-2.732;2022-08-19T11:50:06;100951.71;;;25.67;24.14
69219;BME280;56232;53.384;-2.732;2022-08-19T11:52:31;100952.34;;;24.58;24.28
69219;BME280;56232;53.384;-2.732;2022-08-19T11:54:56;100949.13;;;24.76;23.82
69219;BME280;56232;53.384;-2.732;2022-08-19T11:57:22;100953.58;;;24.68;24.92
69219;BME280;56232;53.384;-2.732;2022-08-19T11:59:49;100956.16;;;24.26;24.78
69219;BME280;56232;53.384;-2.732;2022-08-19T12:02:14;100953.38;;;24.36;24.83
69219;BME280;56232;53.384;-2.732;2022-08-19T12:04:39;100954.00;;;24.17;25.08
69219;BME280;56232;53.384;-2.732;2022-08-19T12:07:04;100958.64;;;24.10;24.97
69219;BME280;56232;53.384;-2.732;2022-08-19T12:09:30;100957.93;;;23.92;25.22
69219;BME280;56232;53.384;-2.732;2022-08-19T12:11:55;100960.76;;;22.60;25.35
69219;BME280;56232;53.384;-2.732;2022-08-19T12:14:21;100963.76;;;23.34;25.30
69219;BME280;56232;53.384;-2.732;2022-08-19T12:16:46;100963.04;;;24.19;25.59
69219;BME280;56232;53.384;-2.732;2022-08-19T12:19:13;100962.41;;;23.36;25.50
69219;BME280;56232;53.384;-2.732;2022-08-19T12:21:37;100965.27;;;24.09;25.44
69219;BME280;56232;53.384;-2.732;2022-08-19T12:24:05;100970.38;;;25.43;24.67
69219;BME280;56232;53.384;-2.732;2022-08-19T12:26:29;100966.15;;;25.66;24.32
69219;BME280;56232;53.384;-2.732;2022-08-19T12:28:54;100961.40;;;25.56;24.48
69219;BME280;56232;53.384;-2.732;2022-08-19T12:31:20;100962.37;;;26.37;24.47